CheckWX is a tool to help pilots better visualize weather data.  It is not intended as a substitute for an official pre-flight weather briefing.

10:48:16 UTC

KHYA METAR
Barnstable Municipal-Boardman / Polando Field Airport
Hyannis, Massachusetts, USA
Current

52 mins ago

KHYA 170956Z 00000KT 1/2SM FG OVC001 18/17 A3006 RMK AO2 SLP181 T01830172
Observed
Aug-17 @ 09:56 UTC
Visibility
1/2 SM
Flight Rules
LIFR
Conditions
Fog
Cloud Levels
  • Overcast at 100' AGL
Temperature
18°C / 64°F
Dewpoint
17°C / 63°F
Humidity
94%
Altimeter
30.06" Hg
Pressure
1017.92 hPa
Previous

1 hour ago

KHYA 170939Z 00000KT 2SM BR OVC002 18/18 A3007 RMK AO2 T01830178
Observed
Aug-17 @ 09:39 UTC
Visibility
2 SM
Flight Rules
LIFR
Conditions
Mist
Cloud Levels
  • Overcast at 200' AGL
Temperature
18°C / 64°F
Dewpoint
18°C / 64°F
Humidity
100%
Altimeter
30.07" Hg
Pressure
1018.32 hPa
Previous

1 hour ago

KHYA 170924Z AUTO VRB03KT 1SM BR VV002 18/17 A3006 RMK AO2 T01830172
Observed
Aug-17 @ 09:24 UTC
Wind
  • Variable at 3 KTS
Visibility
1 SM
Flight Rules
LIFR
Conditions
Mist
Cloud Levels
  • Vertical visibility at 200' AGL
Temperature
18°C / 64°F
Dewpoint
17°C / 63°F
Humidity
94%
Altimeter
30.06" Hg
Pressure
1017.92 hPa